createdAt,value
2018-07-08T00:01:00.864Z,3.67
2018-07-08T00:03:29.441Z,3.93
2018-07-08T00:05:57.919Z,3.67
2018-07-08T00:08:26.736Z,3.70
2018-07-08T00:10:57.238Z,3.97
2018-07-08T00:13:25.952Z,3.97
2018-07-08T00:15:54.260Z,3.57
2018-07-08T00:18:23.807Z,3.47
2018-07-08T00:20:53.454Z,3.97
2018-07-08T00:23:22.802Z,4.83
2018-07-08T00:25:51.390Z,5.30
2018-07-08T00:28:20.259Z,5.60
2018-07-08T00:30:50.146Z,5.07
2018-07-08T00:33:18.769Z,4.57
2018-07-08T00:35:47.282Z,4.27
2018-07-08T00:38:15.737Z,4.37
2018-07-08T00:40:44.490Z,4.20
2018-07-08T00:43:13.397Z,4.40
2018-07-08T00:45:42.840Z,3.57
2018-07-08T00:48:11.438Z,3.80
2018-07-08T00:50:40.757Z,3.90
2018-07-08T00:53:09.253Z,4.10
2018-07-08T00:55:37.841Z,3.53
2018-07-08T00:58:07.044Z,4.17
2018-07-08T01:00:38.215Z,3.87
2018-07-08T01:03:07.961Z,4.40
2018-07-08T01:05:36.512Z,4.23
2018-07-08T01:08:05.221Z,3.93
2018-07-08T01:10:33.725Z,4.50
2018-07-08T01:13:02.839Z,4.40
2018-07-08T01:15:31.363Z,4.90
2018-07-08T01:17:59.839Z,4.67
2018-07-08T01:20:28.369Z,5.40
2018-07-08T01:22:56.891Z,5.07
2018-07-08T01:25:36.769Z,5.40
2018-07-08T01:28:05.345Z,5.07
2018-07-08T01:30:33.847Z,4.97
2018-07-08T01:33:02.309Z,4.87
2018-07-08T01:35:30.826Z,4.60
2018-07-08T01:37:59.321Z,5.50
2018-07-08T01:40:27.885Z,5.17
2018-07-08T01:42:56.331Z,5.60
2018-07-08T01:45:24.845Z,5.97
2018-07-08T01:47:54.165Z,5.83
2018-07-08T01:50:22.662Z,6.07
2018-07-08T01:52:51.229Z,6.13
2018-07-08T01:55:19.769Z,6.40
2018-07-08T01:57:48.250Z,5.50
2018-07-08T02:00:16.769Z,5.60
2018-07-08T02:02:45.245Z,5.47
2018-07-08T02:05:13.730Z,5.53
2018-07-08T02:07:42.266Z,5.40
2018-07-08T02:10:10.769Z,5.33
2018-07-08T02:12:39.216Z,5.60
2018-07-08T02:15:07.737Z,6.20
2018-07-08T02:17:36.246Z,6.00
2018-07-08T02:20:04.818Z,5.93
2018-07-08T02:22:33.318Z,6.00
2018-07-08T02:25:01.929Z,5.77
2018-07-08T02:27:30.511Z,5.83
2018-07-08T02:29:59.114Z,5.37
2018-07-08T02:32:28.222Z,5.80
2018-07-08T02:34:56.789Z,6.13
2018-07-08T02:37:25.353Z,6.00
2018-07-08T02:39:53.860Z,5.80
2018-07-08T02:42:22.443Z,5.70
2018-07-08T02:44:50.970Z,5.77
2018-07-08T02:47:19.487Z,6.00
2018-07-08T02:49:48.237Z,5.63
2018-07-08T02:52:17.270Z,5.33
2018-07-08T02:54:45.738Z,5.33
2018-07-08T02:57:14.261Z,4.70
2018-07-08T02:59:42.757Z,5.03
2018-07-08T03:02:11.265Z,5.17
2018-07-08T03:04:39.831Z,5.50
2018-07-08T03:07:08.335Z,4.53
2018-07-08T03:09:36.807Z,5.23
2018-07-08T03:12:05.425Z,5.20
2018-07-08T03:14:33.903Z,5.17
2018-07-08T03:17:02.073Z,5.27
2018-07-08T03:19:30.701Z,5.07
2018-07-08T03:21:59.154Z,5.13
2018-07-08T03:24:27.610Z,5.40
2018-07-08T03:26:56.098Z,5.17
2018-07-08T03:29:24.577Z,4.97
2018-07-08T03:31:53.050Z,5.27
2018-07-08T03:34:21.557Z,5.03
2018-07-08T03:36:49.709Z,5.10
2018-07-08T03:39:18.159Z,4.70
2018-07-08T03:41:46.702Z,5.70
2018-07-08T03:44:14.854Z,5.03
2018-07-08T03:46:43.422Z,5.37
2018-07-08T03:49:11.945Z,5.30
2018-07-08T03:51:40.423Z,5.63
2018-07-08T03:54:19.991Z,5.60
2018-07-08T03:56:48.513Z,6.10
2018-07-08T03:59:17.025Z,5.60
2018-07-08T04:01:45.524Z,5.63
2018-07-08T04:04:14.045Z,5.00
2018-07-08T04:06:42.547Z,5.60
2018-07-08T04:09:11.022Z,5.70
2018-07-08T04:11:39.484Z,6.03
2018-07-08T04:14:07.981Z,5.90
2018-07-08T04:16:36.445Z,6.00
2018-07-08T04:19:05.034Z,6.70
2018-07-08T04:21:33.569Z,6.17
2018-07-08T04:24:02.111Z,5.70
2018-07-08T04:26:30.625Z,6.00
2018-07-08T04:28:59.106Z,6.23
2018-07-08T04:31:27.333Z,6.07
2018-07-08T04:33:55.813Z,5.73
2018-07-08T04:36:24.398Z,6.20
2018-07-08T04:38:52.881Z,6.07
2018-07-08T04:41:21.032Z,6.03
2018-07-08T04:43:49.706Z,6.20
2018-07-08T04:46:18.237Z,5.97
2018-07-08T04:48:46.745Z,5.60
2018-07-08T04:51:15.402Z,6.33
2018-07-08T04:53:43.882Z,5.77
2018-07-08T04:56:12.498Z,5.90
2018-07-08T04:58:41.070Z,5.60
2018-07-08T05:01:09.550Z,5.87
2018-07-08T05:03:38.061Z,5.63
2018-07-08T05:06:06.637Z,6.07
2018-07-08T05:08:35.222Z,5.83
2018-07-08T05:11:03.854Z,5.70
2018-07-08T05:13:32.381Z,5.93
2018-07-08T05:16:00.842Z,6.43
2018-07-08T05:18:29.309Z,5.50
2018-07-08T05:20:57.879Z,6.27
2018-07-08T05:23:26.540Z,5.53
2018-07-08T05:25:55.056Z,6.13
2018-07-08T05:28:23.562Z,5.80
2018-07-08T05:30:52.057Z,5.67
2018-07-08T05:33:20.553Z,5.23
2018-07-08T05:35:49.069Z,5.90
2018-07-08T05:38:17.645Z,5.90
2018-07-08T05:40:46.130Z,5.67
2018-07-08T05:43:14.682Z,6.00
2018-07-08T05:45:43.318Z,5.80
2018-07-08T05:48:13.166Z,5.10
2018-07-08T05:50:41.321Z,5.63
2018-07-08T05:53:09.842Z,5.10
2018-07-08T05:55:38.646Z,5.27
2018-07-08T05:58:07.960Z,5.43
2018-07-08T06:00:36.433Z,5.43
2018-07-08T06:03:05.477Z,5.40
2018-07-08T06:05:33.966Z,5.10
2018-07-08T06:08:02.489Z,5.87
2018-07-08T06:10:31.047Z,5.87
2018-07-08T06:12:59.546Z,6.03
2018-07-08T06:15:28.095Z,5.93
2018-07-08T06:17:56.581Z,6.23
2018-07-08T06:20:25.053Z,6.60
2018-07-08T06:22:53.629Z,6.33
2018-07-08T06:25:22.108Z,6.03
2018-07-08T06:27:50.646Z,6.80
2018-07-08T06:30:19.138Z,6.13
2018-07-08T06:32:47.610Z,5.63
2018-07-08T06:35:16.113Z,6.03
2018-07-08T06:37:44.557Z,6.27
2018-07-08T06:40:13.078Z,5.60
2018-07-08T06:42:41.679Z,6.20
2018-07-08T06:45:10.185Z,5.23
2018-07-08T06:47:38.726Z,5.60
2018-07-08T06:50:07.314Z,6.07
2018-07-08T06:52:35.817Z,5.57
2018-07-08T06:55:04.397Z,5.37
2018-07-08T06:57:32.986Z,5.40
2018-07-08T07:00:01.453Z,5.57
2018-07-08T07:02:30.873Z,5.67
2018-07-08T07:04:59.393Z,5.80
2018-07-08T07:07:27.882Z,5.53
2018-07-08T07:09:56.549Z,5.77
2018-07-08T07:12:25.041Z,5.93
2018-07-08T07:14:55.334Z,5.30
2018-07-08T07:17:23.897Z,5.67
2018-07-08T07:19:52.571Z,5.70
2018-07-08T07:22:21.289Z,6.10
2018-07-08T07:24:49.829Z,6.40
2018-07-08T07:27:18.339Z,5.80
2018-07-08T07:29:46.959Z,5.07
2018-07-08T07:32:15.697Z,5.33
2018-07-08T07:34:44.174Z,5.83
2018-07-08T07:37:12.413Z,4.87
2018-07-08T07:39:40.906Z,5.37
2018-07-08T07:42:09.409Z,4.73
2018-07-08T07:44:38.029Z,5.30
2018-07-08T07:47:06.687Z,4.73
2018-07-08T07:49:35.210Z,5.20
2018-07-08T07:52:03.765Z,4.83
2018-07-08T07:54:32.301Z,4.87
2018-07-08T07:57:00.857Z,5.07
2018-07-08T07:59:29.365Z,4.80
2018-07-08T08:01:57.973Z,4.27
2018-07-08T08:04:26.489Z,3.60
2018-07-08T08:06:55.109Z,2.63
2018-07-08T08:09:23.615Z,2.70
2018-07-08T08:11:52.136Z,3.30
2018-07-08T08:14:20.677Z,2.90
2018-07-08T08:16:49.232Z,2.50
2018-07-08T08:19:17.707Z,2.73
2018-07-08T08:21:46.207Z,2.50
2018-07-08T08:24:14.898Z,2.80
2018-07-08T08:26:43.505Z,2.00
2018-07-08T08:29:12.096Z,2.07
2018-07-08T08:31:40.615Z,1.83
2018-07-08T08:35:13.612Z,2.47
2018-07-08T08:37:44.144Z,2.20
2018-07-08T08:40:13.474Z,2.10
2018-07-08T08:42:42.009Z,2.27
2018-07-08T08:45:12.067Z,2.10
2018-07-08T08:47:40.627Z,1.70
2018-07-08T08:50:09.913Z,2.00
2018-07-08T08:52:38.494Z,2.30
2018-07-08T08:55:07.895Z,2.17
2018-07-08T08:57:36.446Z,1.87
2018-07-08T09:00:08.648Z,1.80
2018-07-08T09:02:37.248Z,1.97
2018-07-08T09:05:06.526Z,1.83
2018-07-08T09:07:35.022Z,2.20
2018-07-08T09:10:03.565Z,2.07
2018-07-08T09:12:32.095Z,2.30
2018-07-08T09:15:00.662Z,2.13
2018-07-08T09:17:29.254Z,2.10
2018-07-08T09:19:57.790Z,2.40
2018-07-08T09:22:26.336Z,2.40
2018-07-08T09:24:54.842Z,2.50
2018-07-08T09:27:23.342Z,2.33
2018-07-08T09:29:51.817Z,2.43
2018-07-08T09:32:20.318Z,2.33
2018-07-08T09:34:48.980Z,2.30
2018-07-08T09:37:17.670Z,2.20
2018-07-08T09:39:46.232Z,2.40
2018-07-08T09:42:14.814Z,2.47
2018-07-08T09:44:43.351Z,2.50
2018-07-08T09:47:12.570Z,2.43
2018-07-08T09:49:41.152Z,2.40
2018-07-08T09:52:09.755Z,2.47
2018-07-08T09:54:39.157Z,2.47
2018-07-08T09:57:07.793Z,2.50
2018-07-08T09:59:36.391Z,2.43
2018-07-08T10:02:05.084Z,2.37
2018-07-08T10:04:33.823Z,2.30
2018-07-08T10:07:02.548Z,2.50
2018-07-08T10:09:31.216Z,2.80
2018-07-08T10:11:59.843Z,2.47
2018-07-08T10:14:28.456Z,2.60
2018-07-08T10:16:57.124Z,2.77
2018-07-08T10:19:26.042Z,2.73
2018-07-08T10:21:54.256Z,2.30
2018-07-08T10:24:22.891Z,3.00
2018-07-08T10:27:09.412Z,2.60
2018-07-08T10:29:37.965Z,2.90
2018-07-08T10:32:06.657Z,2.60
2018-07-08T10:34:35.251Z,2.87
2018-07-08T10:37:04.348Z,2.60
2018-07-08T10:39:32.984Z,2.70
2018-07-08T10:42:01.575Z,2.77
2018-07-08T10:44:30.293Z,2.70
2018-07-08T10:46:59.124Z,3.30
2018-07-08T10:49:30.428Z,2.73
2018-07-08T10:52:00.049Z,2.97
2018-07-08T10:54:28.683Z,3.10
2018-07-08T10:56:57.349Z,2.87
2018-07-08T10:59:25.907Z,2.63
2018-07-08T11:01:54.378Z,3.00
2018-07-08T11:04:22.957Z,2.83
2018-07-08T11:06:51.504Z,2.90
2018-07-08T11:09:20.069Z,4.17
2018-07-08T11:11:48.638Z,2.90
2018-07-08T11:14:17.221Z,3.10
2018-07-08T11:16:45.898Z,2.90
2018-07-08T11:19:14.441Z,3.53
2018-07-08T11:21:43.025Z,2.37
2018-07-08T11:24:11.594Z,2.90
2018-07-08T11:26:40.138Z,3.10
2018-07-08T11:29:08.984Z,2.50
2018-07-08T11:31:37.617Z,2.83
2018-07-08T11:34:06.382Z,2.77
2018-07-08T11:36:34.936Z,2.77
2018-07-08T11:39:04.472Z,3.00
2018-07-08T11:41:33.111Z,3.00
2018-07-08T11:44:01.639Z,2.67
2018-07-08T11:46:30.219Z,2.53
2018-07-08T11:48:58.754Z,2.50
2018-07-08T11:51:27.293Z,2.43
2018-07-08T11:53:55.873Z,3.03
2018-07-08T11:56:24.402Z,2.73
2018-07-08T11:58:53.007Z,2.50
2018-07-08T12:01:21.602Z,2.60
2018-07-08T12:03:50.105Z,2.70
2018-07-08T12:06:18.699Z,2.70
2018-07-08T12:08:47.355Z,2.70
2018-07-08T12:11:15.893Z,2.73
2018-07-08T12:13:44.445Z,3.00
2018-07-08T12:16:13.025Z,2.80
2018-07-08T12:18:41.576Z,2.37
2018-07-08T12:21:10.120Z,2.47
2018-07-08T12:23:40.915Z,2.50
2018-07-08T12:26:09.621Z,2.50
2018-07-08T12:28:38.205Z,2.43
2018-07-08T12:31:06.766Z,2.67
2018-07-08T12:33:35.346Z,2.70
2018-07-08T12:36:03.754Z,2.23
2018-07-08T12:38:32.358Z,2.37
2018-07-08T12:41:00.965Z,2.70
2018-07-08T12:43:29.547Z,2.17
2018-07-08T12:45:58.434Z,2.40
2018-07-08T12:48:27.178Z,2.47
2018-07-08T12:50:55.405Z,2.50
2018-07-08T12:53:24.040Z,2.20
2018-07-08T12:55:52.649Z,2.30
2018-07-08T12:58:21.231Z,2.47
2018-07-08T13:00:49.885Z,2.40
2018-07-08T13:03:18.451Z,2.03
2018-07-08T13:05:46.990Z,2.53
2018-07-08T13:08:15.593Z,2.70
2018-07-08T13:10:44.205Z,2.10
2018-07-08T13:13:13.659Z,2.17
2018-07-08T13:15:42.179Z,2.43
2018-07-08T13:18:10.726Z,2.50
2018-07-08T13:20:39.247Z,1.90
2018-07-08T13:23:07.818Z,1.87
2018-07-08T13:25:36.376Z,1.80
2018-07-08T13:28:04.998Z,1.83
2018-07-08T13:30:33.562Z,2.37
2018-07-08T13:33:02.189Z,2.33
2018-07-08T13:35:30.846Z,2.33
2018-07-08T13:37:59.337Z,2.53
2018-07-08T13:40:27.898Z,2.47
2018-07-08T13:43:02.968Z,2.23
2018-07-08T13:45:32.811Z,2.17
2018-07-08T13:48:01.448Z,2.17
2018-07-08T13:50:30.166Z,2.30
2018-07-08T13:52:58.815Z,1.87
2018-07-08T13:55:27.371Z,2.23
2018-07-08T13:57:55.970Z,2.40
2018-07-08T14:00:24.649Z,2.13
2018-07-08T14:02:53.406Z,2.20
2018-07-08T14:05:22.031Z,2.40
2018-07-08T14:07:50.702Z,2.43
2018-07-08T14:10:19.226Z,2.20
2018-07-08T14:12:47.958Z,2.13
2018-07-08T14:15:17.225Z,2.00
2018-07-08T14:17:45.733Z,1.87
2018-07-08T14:20:14.041Z,2.17
2018-07-08T14:22:42.558Z,1.67
2018-07-08T14:25:11.118Z,2.30
2018-07-08T14:27:39.701Z,2.30
2018-07-08T14:30:08.262Z,2.03
2018-07-08T14:32:37.036Z,2.17
2018-07-08T14:35:05.731Z,2.40
2018-07-08T14:37:34.247Z,2.43
2018-07-08T14:40:02.858Z,2.30
2018-07-08T14:42:31.418Z,1.80
2018-07-08T14:44:59.926Z,2.23
2018-07-08T14:47:28.490Z,2.47
2018-07-08T14:49:57.102Z,2.20
2018-07-08T14:52:25.945Z,1.63
2018-07-08T14:54:54.709Z,2.10
2018-07-08T14:57:23.245Z,2.50
2018-07-08T14:59:51.782Z,2.20
2018-07-08T15:02:20.389Z,2.07
2018-07-08T15:04:48.964Z,2.03
2018-07-08T15:07:17.497Z,2.53
2018-07-08T15:09:46.053Z,2.90
2018-07-08T15:12:14.689Z,3.07
2018-07-08T15:14:43.290Z,2.30
2018-07-08T15:17:12.111Z,2.20
2018-07-08T15:19:40.884Z,2.80
2018-07-08T15:22:09.495Z,2.40
2018-07-08T15:24:38.034Z,2.43
2018-07-08T15:27:06.649Z,2.50
2018-07-08T15:29:35.197Z,2.50
2018-07-08T15:32:03.743Z,2.23
2018-07-08T15:34:32.369Z,3.00
2018-07-08T15:37:00.995Z,3.80
2018-07-08T15:39:30.282Z,3.50
2018-07-08T15:41:59.842Z,3.40
2018-07-08T15:44:28.385Z,3.23
2018-07-08T15:46:57.135Z,3.40
2018-07-08T15:49:26.372Z,3.50
2018-07-08T15:51:55.095Z,3.53
2018-07-08T15:54:23.851Z,3.67
2018-07-08T15:56:52.426Z,3.80
2018-07-08T15:59:21.021Z,3.17
2018-07-08T16:01:49.749Z,3.30
2018-07-08T16:04:18.325Z,3.10
2018-07-08T16:06:46.823Z,3.20
2018-07-08T16:09:15.423Z,3.03
2018-07-08T16:11:43.958Z,3.33
2018-07-08T16:14:12.481Z,3.30
2018-07-08T16:16:40.678Z,3.17
2018-07-08T16:19:09.183Z,3.57
2018-07-08T16:21:37.722Z,3.50
2018-07-08T16:24:06.325Z,3.80
2018-07-08T16:26:34.830Z,3.60
2018-07-08T16:29:03.407Z,3.13
2018-07-08T16:31:31.933Z,3.43
2018-07-08T16:34:00.773Z,3.27
2018-07-08T16:36:29.313Z,3.50
2018-07-08T16:38:58.190Z,3.07
2018-07-08T16:41:27.716Z,3.57
2018-07-08T16:43:55.932Z,3.10
2018-07-08T16:46:24.445Z,3.53
2018-07-08T16:48:53.006Z,3.90
2018-07-08T16:51:21.542Z,3.60
2018-07-08T16:53:50.141Z,3.50
2018-07-08T16:56:19.017Z,3.70
2018-07-08T16:58:47.590Z,3.90
2018-07-08T17:01:16.102Z,4.20
2018-07-08T17:03:45.661Z,4.00
2018-07-08T17:06:14.199Z,4.00
2018-07-08T17:08:42.848Z,4.23
2018-07-08T17:11:11.766Z,4.37
2018-07-08T17:13:40.682Z,4.00
2018-07-08T17:16:09.242Z,4.10
2018-07-08T17:18:37.760Z,4.20
2018-07-08T17:21:06.654Z,4.17
2018-07-08T17:23:35.331Z,4.50
2018-07-08T17:26:03.916Z,4.40
2018-07-08T17:28:32.658Z,4.70
2018-07-08T17:31:01.184Z,4.60
2018-07-08T17:33:29.955Z,4.63
2018-07-08T17:35:58.450Z,5.17
2018-07-08T17:38:27.201Z,4.70
2018-07-08T17:40:55.898Z,4.80
2018-07-08T17:43:24.866Z,5.17
2018-07-08T17:45:53.463Z,4.40
2018-07-08T17:48:22.624Z,4.83
2018-07-08T17:50:51.183Z,4.53
2018-07-08T17:53:19.979Z,4.50
2018-07-08T17:55:48.582Z,4.33
2018-07-08T17:58:17.221Z,4.10
2018-07-08T18:00:45.765Z,4.27
2018-07-08T18:03:14.399Z,4.63
2018-07-08T18:05:43.017Z,4.30
2018-07-08T18:08:11.682Z,4.50
2018-07-08T18:10:40.247Z,4.20
2018-07-08T18:13:09.125Z,3.87
2018-07-08T18:15:38.517Z,4.23
2018-07-08T18:18:07.374Z,3.93
2018-07-08T18:20:36.003Z,3.80
2018-07-08T18:23:04.802Z,3.40
2018-07-08T18:25:33.434Z,4.10
2018-07-08T18:28:02.187Z,3.70
2018-07-08T18:30:32.031Z,3.60
2018-07-08T18:33:00.655Z,3.57
2018-07-08T18:35:30.394Z,3.50
2018-07-08T18:37:59.081Z,3.90
2018-07-08T18:40:27.803Z,3.67
2018-07-08T18:42:56.892Z,4.10
2018-07-08T18:45:25.594Z,3.47
2018-07-08T18:47:54.543Z,4.03
2018-07-08T18:50:23.326Z,3.47
2018-07-08T18:52:51.978Z,3.70
2018-07-08T18:55:20.613Z,3.83
2018-07-08T18:57:49.255Z,4.27
2018-07-08T19:00:17.839Z,3.97
2018-07-08T19:02:46.450Z,3.80
2018-07-08T19:05:15.090Z,3.93
2018-07-08T19:07:43.721Z,4.67
2018-07-08T19:10:12.337Z,4.10
2018-07-08T19:12:41.499Z,4.67
2018-07-08T19:15:10.046Z,4.83
2018-07-08T19:17:38.694Z,4.80
2018-07-08T19:20:07.348Z,4.63
2018-07-08T19:22:36.039Z,4.07
2018-07-08T19:25:04.804Z,4.30
2018-07-08T19:27:33.507Z,3.77
2018-07-08T19:30:02.307Z,4.47
2018-07-08T19:32:31.009Z,4.33
2018-07-08T19:35:00.023Z,4.33
2018-07-08T19:37:28.920Z,4.03
2018-07-08T19:39:57.603Z,3.63
2018-07-08T19:42:26.350Z,3.97
2018-07-08T19:44:55.329Z,4.00
2018-07-08T19:47:24.004Z,4.47
2018-07-08T19:49:52.944Z,3.93
2018-07-08T19:52:21.713Z,4.70
2018-07-08T19:54:50.914Z,5.00
2018-07-08T19:57:19.726Z,4.40
2018-07-08T19:59:48.768Z,4.27
2018-07-08T20:02:17.425Z,4.73
2018-07-08T20:04:47.148Z,4.57
2018-07-08T20:07:15.897Z,4.13
2018-07-08T20:09:45.389Z,4.47
2018-07-08T20:12:13.752Z,4.20
2018-07-08T20:14:42.119Z,4.40
2018-07-08T20:17:10.963Z,4.30
2018-07-08T20:19:39.716Z,3.87
2018-07-08T20:22:08.465Z,4.20
2018-07-08T20:24:37.150Z,4.70
2018-07-08T20:27:06.057Z,3.83
2018-07-08T20:29:35.136Z,4.60
2018-07-08T20:32:03.731Z,4.13
2018-07-08T20:34:32.461Z,4.33
2018-07-08T20:37:01.154Z,4.50
2018-07-08T20:39:30.939Z,4.43
2018-07-08T20:41:59.624Z,4.83
2018-07-08T20:44:28.439Z,4.50
2018-07-08T20:46:57.104Z,4.60
2018-07-08T20:49:26.636Z,4.97
2018-07-08T20:51:56.352Z,5.00
2018-07-08T20:54:24.987Z,4.60
2018-07-08T20:56:53.752Z,4.80
2018-07-08T20:59:22.453Z,4.50
2018-07-08T21:01:51.132Z,4.47
2018-07-08T21:04:19.780Z,4.53
2018-07-08T21:06:48.450Z,4.67
2018-07-08T21:09:17.055Z,4.70
2018-07-08T21:11:45.743Z,4.27
2018-07-08T21:14:14.332Z,4.57
2018-07-08T21:16:42.965Z,4.70
2018-07-08T21:19:11.589Z,4.80
2018-07-08T21:21:40.279Z,4.57
2018-07-08T21:24:09.028Z,4.97
2018-07-08T21:26:37.781Z,4.90
2018-07-08T21:29:06.505Z,4.90
2018-07-08T21:31:35.871Z,4.50
2018-07-08T21:34:04.574Z,4.90
2018-07-08T21:36:33.152Z,4.90
2018-07-08T21:39:01.811Z,4.80
2018-07-08T21:41:30.604Z,4.93
2018-07-08T21:43:59.223Z,4.90
2018-07-08T21:46:27.842Z,4.50
2018-07-08T21:48:56.775Z,5.17
2018-07-08T21:51:25.476Z,5.03
2018-07-08T21:53:54.507Z,5.10
2018-07-08T21:56:23.176Z,5.50
2018-07-08T21:58:51.894Z,5.30
2018-07-08T22:01:21.680Z,5.70
2018-07-08T22:03:51.022Z,6.20
2018-07-08T22:06:20.258Z,5.70
2018-07-08T22:08:48.913Z,5.50
2018-07-08T22:11:18.089Z,5.60
2018-07-08T22:13:46.716Z,6.17
2018-07-08T22:16:15.290Z,6.20
2018-07-08T22:18:43.897Z,6.30
2018-07-08T22:21:12.438Z,5.83
2018-07-08T22:23:41.095Z,6.30
2018-07-08T22:26:09.824Z,5.73
2018-07-08T22:28:38.381Z,6.20
2018-07-08T22:31:07.061Z,6.33
2018-07-08T22:33:35.583Z,6.30
2018-07-08T22:36:04.119Z,6.53
2018-07-08T22:38:32.749Z,5.83
2018-07-08T22:41:01.394Z,5.73
2018-07-08T22:43:30.008Z,5.97
2018-07-08T22:45:58.608Z,6.70
2018-07-08T22:48:27.268Z,6.30
2018-07-08T22:50:55.792Z,6.30
2018-07-08T22:53:25.052Z,6.53
2018-07-08T22:55:53.700Z,6.50
2018-07-08T22:58:22.249Z,6.87
2018-07-08T23:01:01.925Z,6.57
2018-07-08T23:03:48.068Z,6.90
2018-07-08T23:06:17.678Z,7.03
2018-07-08T23:08:46.558Z,7.03
2018-07-08T23:11:15.195Z,6.93
2018-07-08T23:13:43.930Z,6.30
2018-07-08T23:16:12.585Z,6.60
2018-07-08T23:18:41.180Z,6.63
2018-07-08T23:21:09.885Z,6.80
2018-07-08T23:23:38.571Z,6.50
2018-07-08T23:26:07.624Z,6.63
2018-07-08T23:28:37.177Z,6.60
2018-07-08T23:31:06.322Z,6.33
2018-07-08T23:33:34.980Z,6.60
2018-07-08T23:36:04.311Z,5.80
2018-07-08T23:38:33.287Z,6.80
2018-07-08T23:41:02.929Z,6.30
2018-07-08T23:43:31.658Z,6.20
2018-07-08T23:46:00.929Z,6.67
2018-07-08T23:48:29.555Z,6.40
2018-07-08T23:50:58.194Z,6.47
2018-07-08T23:53:26.873Z,5.73
2018-07-08T23:55:55.782Z,5.93
2018-07-08T23:58:24.357Z,5.83
